createdAt,value
2022-10-09T00:02:42.808Z,13.66
2022-10-09T00:05:28.661Z,13.65
2022-10-09T00:08:14.409Z,13.61
2022-10-09T00:11:00.285Z,13.62
2022-10-09T00:13:46.445Z,13.66
2022-10-09T00:16:33.064Z,13.68
2022-10-09T00:19:18.817Z,13.64
2022-10-09T00:22:04.503Z,13.70
2022-10-09T00:24:50.248Z,13.69
2022-10-09T00:27:36.094Z,13.69
2022-10-09T00:30:22.138Z,13.67
2022-10-09T00:33:08.071Z,13.68
2022-10-09T00:35:53.759Z,13.67
2022-10-09T00:38:39.771Z,13.64
2022-10-09T00:41:29.099Z,13.67
2022-10-09T00:44:49.147Z,13.67
2022-10-09T00:47:41.869Z,13.69
2022-10-09T00:50:44.733Z,13.69
2022-10-09T00:53:31.096Z,13.70
2022-10-09T00:56:17.194Z,13.71
2022-10-09T00:59:03.759Z,13.69
2022-10-09T01:01:50.554Z,13.66
2022-10-09T01:04:37.801Z,13.68
2022-10-09T01:07:31.865Z,13.67
2022-10-09T01:10:46.729Z,13.67
2022-10-09T01:13:51.175Z,13.66
2022-10-09T01:16:46.856Z,13.61
2022-10-09T01:19:47.839Z,13.59
2022-10-09T01:22:51.371Z,13.54
2022-10-09T01:26:00.667Z,13.49
2022-10-09T01:28:57.164Z,13.45
2022-10-09T01:31:47.953Z,13.42
2022-10-09T01:34:36.251Z,13.43
2022-10-09T01:37:24.596Z,13.39
2022-10-09T01:40:14.645Z,13.38
2022-10-09T01:43:02.831Z,13.36
2022-10-09T01:45:50.315Z,13.33
2022-10-09T01:48:38.617Z,13.33
2022-10-09T01:51:31.239Z,13.31
2022-10-09T01:54:24.269Z,13.28
2022-10-09T01:57:13.888Z,13.25
2022-10-09T02:00:06.723Z,13.22
2022-10-09T02:02:59.763Z,13.19
2022-10-09T02:05:51.403Z,13.19
2022-10-09T02:08:40.459Z,13.17
2022-10-09T02:11:32.315Z,13.17
2022-10-09T02:14:19.662Z,13.15
2022-10-09T02:17:13.316Z,13.10
2022-10-09T02:20:10.459Z,13.06
2022-10-09T02:22:58.400Z,13.07
2022-10-09T02:25:46.638Z,13.05
2022-10-09T02:28:34.751Z,13.04
2022-10-09T02:31:29.176Z,12.99
2022-10-09T02:34:21.232Z,12.97
2022-10-09T02:37:09.123Z,12.96
2022-10-09T02:39:56.591Z,12.94
2022-10-09T02:42:46.370Z,12.93
2022-10-09T02:45:36.054Z,12.90
2022-10-09T02:48:24.782Z,12.89
2022-10-09T02:51:12.458Z,12.88
2022-10-09T02:54:03.333Z,12.88
2022-10-09T02:56:52.312Z,12.86
2022-10-09T02:59:39.354Z,12.83
2022-10-09T03:02:27.264Z,12.82
2022-10-09T03:05:15.227Z,12.74
2022-10-09T03:08:03.521Z,12.71
2022-10-09T03:10:51.446Z,12.69
2022-10-09T03:13:40.450Z,12.62
2022-10-09T03:16:28.627Z,12.57
2022-10-09T03:19:15.538Z,12.51
2022-10-09T03:22:02.381Z,12.48
2022-10-09T03:24:49.451Z,12.43
2022-10-09T03:27:37.212Z,12.43
2022-10-09T03:30:24.907Z,12.42
2022-10-09T03:33:12.254Z,12.40
2022-10-09T03:35:59.210Z,12.40
2022-10-09T03:38:46.401Z,12.38
2022-10-09T03:41:33.277Z,12.38
2022-10-09T03:44:20.440Z,12.36
2022-10-09T03:47:07.512Z,12.33
2022-10-09T03:49:56.450Z,12.29
2022-10-09T03:52:44.733Z,12.15
2022-10-09T03:55:32.436Z,12.18
2022-10-09T03:58:20.297Z,12.16
2022-10-09T04:01:08.582Z,12.09
2022-10-09T04:03:55.450Z,12.07
2022-10-09T04:06:42.592Z,12.06
2022-10-09T04:09:30.216Z,12.01
2022-10-09T04:12:19.936Z,12.00
2022-10-09T04:15:07.992Z,11.97
2022-10-09T04:17:56.800Z,11.96
2022-10-09T04:20:51.763Z,11.96
2022-10-09T04:23:38.991Z,11.98
2022-10-09T04:26:26.389Z,11.97
2022-10-09T04:29:14.282Z,11.98
2022-10-09T04:32:01.983Z,11.96
2022-10-09T04:34:49.401Z,11.98
2022-10-09T04:37:37.235Z,11.94
2022-10-09T04:40:24.883Z,11.94
2022-10-09T04:43:11.916Z,11.91
2022-10-09T04:46:04.816Z,11.90
2022-10-09T04:48:51.215Z,11.89
2022-10-09T04:51:38.049Z,11.88
2022-10-09T04:54:25.603Z,11.88
2022-10-09T04:57:12.474Z,11.88
2022-10-09T04:59:59.666Z,11.89
2022-10-09T05:02:47.013Z,11.88
2022-10-09T05:05:34.365Z,11.84
2022-10-09T05:08:22.112Z,11.84
2022-10-09T05:11:12.493Z,11.84
2022-10-09T05:14:00.656Z,11.82
2022-10-09T05:17:12.556Z,11.85
2022-10-09T05:19:59.729Z,11.86
2022-10-09T05:22:48.058Z,11.88
2022-10-09T05:25:34.901Z,11.90
2022-10-09T05:28:21.734Z,11.96
2022-10-09T05:31:09.617Z,11.97
2022-10-09T05:33:59.986Z,11.97
2022-10-09T05:36:47.668Z,12.08
2022-10-09T05:39:36.457Z,12.13
2022-10-09T05:42:22.760Z,12.19
2022-10-09T05:45:09.774Z,12.22
2022-10-09T05:47:57.209Z,12.27
2022-10-09T05:50:48.996Z,12.30
2022-10-09T05:53:43.523Z,12.35
2022-10-09T05:56:36.643Z,12.43
2022-10-09T05:59:25.798Z,12.44
2022-10-09T06:02:17.487Z,12.48
2022-10-09T06:05:05.574Z,12.53
2022-10-09T06:07:55.649Z,12.55
2022-10-09T06:10:42.810Z,12.59
2022-10-09T06:13:29.525Z,12.62
2022-10-09T06:16:17.989Z,12.67
2022-10-09T06:19:06.809Z,12.70
2022-10-09T06:21:54.454Z,12.74
2022-10-09T06:24:41.062Z,12.76
2022-10-09T06:27:28.648Z,12.76
2022-10-09T06:30:15.100Z,12.79
2022-10-09T06:33:07.040Z,12.83
2022-10-09T06:36:05.598Z,12.91
2022-10-09T06:38:56.631Z,12.95
2022-10-09T06:41:44.094Z,12.98
2022-10-09T06:44:46.857Z,13.08
2022-10-09T06:47:34.595Z,13.12
2022-10-09T06:50:21.146Z,13.20
2022-10-09T06:53:08.104Z,13.28
2022-10-09T06:55:58.071Z,13.31
2022-10-09T06:58:45.169Z,13.33
2022-10-09T07:01:32.312Z,13.43
2022-10-09T07:04:18.924Z,13.44
2022-10-09T07:07:05.018Z,13.48
2022-10-09T07:09:52.839Z,13.48
2022-10-09T07:12:39.272Z,13.53
2022-10-09T07:15:25.339Z,13.53
2022-10-09T07:18:11.582Z,13.61
2022-10-09T07:20:57.555Z,13.65
2022-10-09T07:23:43.610Z,13.67
2022-10-09T07:26:31.510Z,13.71
2022-10-09T07:29:18.920Z,13.74
2022-10-09T07:32:08.266Z,13.80
2022-10-09T07:34:56.198Z,13.85
2022-10-09T07:37:41.912Z,13.92
2022-10-09T07:40:27.620Z,13.98
2022-10-09T07:43:13.431Z,14.07
2022-10-09T07:46:06.266Z,14.22
2022-10-09T07:48:52.379Z,14.33
2022-10-09T07:51:51.186Z,14.46
2022-10-09T07:55:14.130Z,14.69
2022-10-09T07:58:00.014Z,14.85
2022-10-09T08:00:45.831Z,15.00
2022-10-09T08:03:31.518Z,15.11
2022-10-09T08:06:18.346Z,15.24
2022-10-09T08:09:05.569Z,15.36
2022-10-09T08:16:35.393Z,15.65
2022-10-09T08:19:21.187Z,15.87
2022-10-09T08:22:07.476Z,16.03
2022-10-09T08:24:53.446Z,16.25
2022-10-09T08:27:39.190Z,16.43
2022-10-09T08:30:25.071Z,16.59
2022-10-09T08:33:12.407Z,16.86
2022-10-09T08:39:41.916Z,17.20
2022-10-09T08:42:59.948Z,17.43
2022-10-09T08:45:47.421Z,17.63
2022-10-09T08:48:36.116Z,17.80
2022-10-09T08:51:27.756Z,18.02
2022-10-09T08:54:27.735Z,18.23
2022-10-09T08:57:16.910Z,18.43
2022-10-09T09:00:02.793Z,18.60
2022-10-09T09:03:19.958Z,18.82
2022-10-09T09:06:43.115Z,19.08
2022-10-09T09:10:20.349Z,19.37
2022-10-09T09:13:35.010Z,19.69
2022-10-09T09:17:18.080Z,19.96
2022-10-09T09:20:16.670Z,20.19
2022-10-09T09:23:13.651Z,20.48
2022-10-09T09:26:19.917Z,20.72
2022-10-09T09:29:05.980Z,20.97
2022-10-09T09:31:55.587Z,21.28
2022-10-09T09:34:41.911Z,21.56
2022-10-09T09:37:27.837Z,21.79
2022-10-09T09:44:00.253Z,22.43
2022-10-09T09:46:47.455Z,22.63
2022-10-09T09:49:33.477Z,22.78
2022-10-09T09:52:19.620Z,22.95
2022-10-09T09:55:06.361Z,23.05
2022-10-09T09:57:52.638Z,23.13
2022-10-09T10:00:38.867Z,23.12
2022-10-09T10:03:26.723Z,23.11
2022-10-09T10:06:59.484Z,23.13
2022-10-09T10:09:45.651Z,23.12
2022-10-09T10:12:31.800Z,23.28
2022-10-09T10:19:55.795Z,23.88
2022-10-09T10:23:30.813Z,24.25
2022-10-09T10:26:55.973Z,24.58
2022-10-09T10:33:59.222Z,25.15
2022-10-09T10:36:46.969Z,25.33
2022-10-09T10:39:47.072Z,25.65
2022-10-09T10:43:08.169Z,25.96
2022-10-09T10:46:06.688Z,26.30
2022-10-09T10:48:53.392Z,26.46
2022-10-09T10:52:00.971Z,26.63
2022-10-09T10:55:29.372Z,26.81
2022-10-09T10:58:31.162Z,26.96
2022-10-09T11:01:56.757Z,27.01
2022-10-09T11:04:46.379Z,27.09
2022-10-09T11:07:46.348Z,27.39
2022-10-09T11:11:07.791Z,28.03
2022-10-09T11:13:56.226Z,28.42
2022-10-09T11:17:25.093Z,28.75
2022-10-09T11:20:30.585Z,28.82
2022-10-09T11:23:50.465Z,28.76
2022-10-09T11:27:03.435Z,29.16
2022-10-09T11:30:00.531Z,29.67
2022-10-09T11:33:21.722Z,29.82
2022-10-09T11:36:15.011Z,29.53
2022-10-09T11:39:12.246Z,29.22
2022-10-09T11:41:59.167Z,28.90
2022-10-09T11:45:09.790Z,28.51
2022-10-09T11:48:08.212Z,27.87
2022-10-09T11:51:20.195Z,27.42
2022-10-09T11:54:15.368Z,27.02
2022-10-09T11:57:06.336Z,26.62
2022-10-09T12:00:04.310Z,26.48
2022-10-09T12:03:08.649Z,26.19
2022-10-09T12:06:15.088Z,25.91
2022-10-09T12:09:05.935Z,25.47
2022-10-09T12:12:31.751Z,25.14
2022-10-09T12:15:27.977Z,24.84
2022-10-09T12:18:23.775Z,24.58
2022-10-09T12:21:48.373Z,24.30
2022-10-09T12:24:41.160Z,24.00
2022-10-09T12:27:31.205Z,23.83
2022-10-09T12:30:22.266Z,23.65
2022-10-09T12:33:37.228Z,23.49
2022-10-09T12:36:28.537Z,23.36
2022-10-09T12:39:23.731Z,23.33
2022-10-09T12:42:19.525Z,23.29
2022-10-09T12:45:05.851Z,23.18
2022-10-09T12:47:52.909Z,23.26
2022-10-09T12:50:39.497Z,23.29
2022-10-09T12:53:27.859Z,23.32
2022-10-09T12:56:14.895Z,23.39
2022-10-09T12:59:10.403Z,23.37
2022-10-09T13:01:58.838Z,23.34
2022-10-09T13:05:00.574Z,23.30
2022-10-09T13:07:52.052Z,23.30
2022-10-09T13:10:38.094Z,23.53
2022-10-09T13:13:26.938Z,24.08
2022-10-09T13:16:12.923Z,24.96
2022-10-09T13:19:03.939Z,26.02
2022-10-09T13:22:22.313Z,28.07
2022-10-09T13:25:09.519Z,30.63
2022-10-09T13:27:56.553Z,31.97
2022-10-09T13:30:42.505Z,32.47
2022-10-09T13:33:28.465Z,33.12
2022-10-09T13:36:15.462Z,34.41
2022-10-09T13:39:01.627Z,35.69
2022-10-09T13:42:00.091Z,36.58
2022-10-09T13:44:46.594Z,36.27
2022-10-09T13:47:32.279Z,36.23
2022-10-09T13:50:19.771Z,36.47
2022-10-09T13:53:05.570Z,36.38
2022-10-09T13:55:59.984Z,35.84
2022-10-09T13:58:46.928Z,35.01
2022-10-09T14:01:33.287Z,34.50
2022-10-09T14:04:19.523Z,33.79
2022-10-09T14:07:05.604Z,33.68
2022-10-09T14:09:51.646Z,34.11
2022-10-09T14:12:37.409Z,34.63
2022-10-09T14:15:23.349Z,34.61
2022-10-09T14:18:09.560Z,33.85
2022-10-09T14:20:55.401Z,32.73
2022-10-09T14:23:41.351Z,31.54
2022-10-09T14:26:28.863Z,30.54
2022-10-09T14:29:14.637Z,29.65
2022-10-09T14:32:00.375Z,28.80
2022-10-09T14:34:50.326Z,28.15
2022-10-09T14:37:41.492Z,27.60
2022-10-09T14:40:27.783Z,27.05
2022-10-09T14:43:22.841Z,26.65
2022-10-09T14:46:12.600Z,26.30
2022-10-09T14:48:59.056Z,26.03
2022-10-09T14:51:45.206Z,25.76
2022-10-09T14:54:31.089Z,25.51
2022-10-09T14:57:18.982Z,25.22
2022-10-09T15:00:06.830Z,24.89
2022-10-09T15:02:54.172Z,24.57
2022-10-09T15:05:42.513Z,24.31
2022-10-09T15:08:33.254Z,24.05
2022-10-09T15:11:19.121Z,23.71
2022-10-09T15:14:12.306Z,23.57
2022-10-09T15:16:58.356Z,23.35
2022-10-09T15:19:44.236Z,23.18
2022-10-09T15:22:45.496Z,22.95
2022-10-09T15:25:31.834Z,22.79
2022-10-09T15:28:19.040Z,22.67
2022-10-09T15:31:06.753Z,22.56
2022-10-09T15:33:54.039Z,22.32
2022-10-09T15:36:40.423Z,22.17
2022-10-09T15:39:26.083Z,22.05
2022-10-09T15:42:11.975Z,21.94
2022-10-09T15:44:57.682Z,21.74
2022-10-09T15:47:51.395Z,21.66
2022-10-09T15:50:46.400Z,21.53
2022-10-09T15:53:32.057Z,21.43
2022-10-09T15:56:24.737Z,21.29
2022-10-09T15:59:12.706Z,21.18
2022-10-09T16:01:58.478Z,20.98
2022-10-09T16:04:49.702Z,20.86
2022-10-09T16:07:38.683Z,20.77
2022-10-09T16:11:00.734Z,20.61
2022-10-09T16:13:46.644Z,20.42
2022-10-09T16:16:32.804Z,20.26
2022-10-09T16:19:19.007Z,20.15
2022-10-09T16:22:06.041Z,20.09
2022-10-09T16:24:51.982Z,19.98
2022-10-09T16:27:37.686Z,19.80
2022-10-09T16:30:23.525Z,19.74
2022-10-09T16:33:12.908Z,19.52
2022-10-09T16:36:22.138Z,19.47
2022-10-09T16:39:07.934Z,19.35
2022-10-09T16:41:54.180Z,19.28
2022-10-09T16:44:40.142Z,19.24
2022-10-09T16:47:26.323Z,19.16
2022-10-09T16:50:12.411Z,19.14
2022-10-09T16:52:58.749Z,19.02
2022-10-09T16:55:49.859Z,18.95
2022-10-09T16:58:36.059Z,18.86
2022-10-09T17:01:22.672Z,18.84
2022-10-09T17:04:08.711Z,18.78
2022-10-09T17:06:54.888Z,18.73
2022-10-09T17:09:41.298Z,18.68
2022-10-09T17:12:27.418Z,18.63
2022-10-09T17:15:13.673Z,18.54
2022-10-09T17:17:59.762Z,18.52
2022-10-09T17:20:45.526Z,18.48
2022-10-09T17:23:31.491Z,18.46
2022-10-09T17:26:19.530Z,18.39
2022-10-09T17:29:06.068Z,18.35
2022-10-09T17:31:52.317Z,18.29
2022-10-09T17:34:43.109Z,18.20
2022-10-09T17:37:29.161Z,18.15
2022-10-09T17:40:16.100Z,18.12
2022-10-09T17:43:04.061Z,17.99
2022-10-09T17:46:01.677Z,18.08
2022-10-09T17:49:08.541Z,18.02
2022-10-09T17:51:54.825Z,17.98
2022-10-09T17:54:41.161Z,17.87
2022-10-09T17:57:27.579Z,17.88
2022-10-09T18:00:17.520Z,17.73
2022-10-09T18:03:21.642Z,17.77
2022-10-09T18:06:11.369Z,17.72
2022-10-09T18:08:58.067Z,17.64
2022-10-09T18:11:44.038Z,17.64
2022-10-09T18:14:30.088Z,17.53
2022-10-09T18:17:15.922Z,17.43
2022-10-09T18:20:01.722Z,17.36
2022-10-09T18:22:47.892Z,17.37
2022-10-09T18:25:34.922Z,17.31
2022-10-09T18:28:20.947Z,17.25
2022-10-09T18:31:08.424Z,17.25
2022-10-09T18:33:54.664Z,17.19
2022-10-09T18:36:40.943Z,17.18
2022-10-09T18:39:28.684Z,17.07
2022-10-09T18:42:14.866Z,17.07
2022-10-09T18:45:01.018Z,17.01
2022-10-09T18:47:46.877Z,16.94
2022-10-09T18:50:33.220Z,16.91
2022-10-09T18:53:19.211Z,16.79
2022-10-09T18:56:07.188Z,16.69
2022-10-09T18:58:53.542Z,16.64
2022-10-09T19:01:39.997Z,16.62
2022-10-09T19:04:25.737Z,16.59
2022-10-09T19:07:11.754Z,16.51
2022-10-09T19:09:57.783Z,16.45
2022-10-09T19:12:44.244Z,16.36
2022-10-09T19:15:30.479Z,16.30
2022-10-09T19:18:16.491Z,16.30
2022-10-09T19:21:03.097Z,16.24
2022-10-09T19:23:51.145Z,16.21
2022-10-09T19:26:41.054Z,16.16
2022-10-09T19:29:27.444Z,16.11
2022-10-09T19:32:14.131Z,16.03
2022-10-09T19:35:00.733Z,16.06
2022-10-09T19:37:47.404Z,16.01
2022-10-09T19:40:35.067Z,15.91
2022-10-09T19:43:24.374Z,15.84
2022-10-09T19:46:17.738Z,15.85
2022-10-09T19:49:04.721Z,15.84
2022-10-09T19:51:50.913Z,15.82
2022-10-09T19:54:37.877Z,15.72
2022-10-09T19:57:23.707Z,15.60
2022-10-09T20:00:11.652Z,15.49
2022-10-09T20:02:57.750Z,15.38
2022-10-09T20:05:43.766Z,15.36
2022-10-09T20:08:29.967Z,15.34
2022-10-09T20:11:16.250Z,15.27
2022-10-09T20:14:03.444Z,15.18
2022-10-09T20:16:49.171Z,15.09
2022-10-09T20:19:35.380Z,15.13
2022-10-09T20:22:21.450Z,15.06
2022-10-09T20:25:07.986Z,15.02
2022-10-09T20:27:54.038Z,14.92
2022-10-09T20:30:40.443Z,14.85
2022-10-09T20:33:28.286Z,14.83
2022-10-09T20:36:26.329Z,14.77
2022-10-09T20:39:15.408Z,14.75
2022-10-09T20:42:01.462Z,14.71
2022-10-09T20:44:49.653Z,14.67
2022-10-09T20:47:36.785Z,14.62
2022-10-09T20:50:22.494Z,14.60
2022-10-09T20:53:10.157Z,14.52
2022-10-09T20:56:01.155Z,14.44
2022-10-09T20:58:47.164Z,14.36
2022-10-09T21:01:33.353Z,14.28
2022-10-09T21:04:19.374Z,14.23
2022-10-09T21:07:05.431Z,14.13
2022-10-09T21:09:51.713Z,14.04
2022-10-09T21:12:37.948Z,14.02
2022-10-09T21:15:24.123Z,14.02
2022-10-09T21:18:10.658Z,14.01
2022-10-09T21:20:56.490Z,13.96
2022-10-09T21:23:42.384Z,13.98
2022-10-09T21:26:29.826Z,13.98
2022-10-09T21:29:15.635Z,13.92
2022-10-09T21:32:01.639Z,13.96
2022-10-09T21:34:47.602Z,13.93
2022-10-09T21:37:37.317Z,13.92
2022-10-09T21:40:23.942Z,13.90
2022-10-09T21:43:10.698Z,13.90
2022-10-09T21:45:56.687Z,13.83
2022-10-09T21:48:42.371Z,13.79
2022-10-09T21:51:28.870Z,13.85
2022-10-09T21:54:15.074Z,13.80
2022-10-09T21:57:01.231Z,13.78
2022-10-09T21:59:47.611Z,13.74
2022-10-09T22:02:33.398Z,13.72
2022-10-09T22:05:19.783Z,13.62
2022-10-09T22:08:05.956Z,13.60
2022-10-09T22:10:52.457Z,13.56
2022-10-09T22:13:38.602Z,13.50
2022-10-09T22:16:24.654Z,13.44
2022-10-09T22:19:10.550Z,13.38
2022-10-09T22:21:56.826Z,13.32
2022-10-09T22:24:43.425Z,13.30
2022-10-09T22:27:29.315Z,13.28
2022-10-09T22:30:15.157Z,13.28
2022-10-09T22:33:00.887Z,13.26
2022-10-09T22:35:46.578Z,13.17
2022-10-09T22:38:32.682Z,13.17
2022-10-09T22:41:20.503Z,13.18
2022-10-09T22:44:08.356Z,13.18
2022-10-09T22:46:54.346Z,13.16
2022-10-09T22:49:40.193Z,13.11
2022-10-09T22:52:26.784Z,13.08
2022-10-09T22:55:12.675Z,13.08
2022-10-09T22:57:58.339Z,13.03
2022-10-09T23:00:44.193Z,13.02
2022-10-09T23:03:29.951Z,12.91
2022-10-09T23:06:18.380Z,12.88
2022-10-09T23:09:07.027Z,12.83
2022-10-09T23:11:53.301Z,12.80
2022-10-09T23:14:39.289Z,12.75
2022-10-09T23:17:25.170Z,12.79
2022-10-09T23:20:11.043Z,12.77
2022-10-09T23:22:57.009Z,12.73
2022-10-09T23:25:42.955Z,12.75
2022-10-09T23:28:28.938Z,12.72
2022-10-09T23:31:14.902Z,12.72
2022-10-09T23:34:01.322Z,12.63
2022-10-09T23:36:47.166Z,12.65
2022-10-09T23:39:32.798Z,12.68
2022-10-09T23:42:18.382Z,12.65
2022-10-09T23:45:04.634Z,12.63
2022-10-09T23:47:51.030Z,12.61
2022-10-09T23:50:36.945Z,12.57
2022-10-09T23:53:24.479Z,12.56
2022-10-09T23:56:20.419Z,12.51
2022-10-09T23:59:07.066Z,12.47
